sensor_id;sensor_type;location;lat;lon;timestamp;pressure;altitude;pressure_sealevel;temperature;humidity
3096;BME280;1558;42.700;23.360;2024-01-10T00:00:57;96402.44;;;-4.54;100.00
3096;BME280;1558;42.700;23.360;2024-01-10T00:03:25;96393.13;;;-4.50;100.00
3096;BME280;1558;42.700;23.360;2024-01-10T00:05:53;96383.00;;;-4.53;100.00
3096;BME280;1558;42.700;23.360;2024-01-10T00:08:24;96394.34;;;-4.52;100.00
3096;BME280;1558;42.700;23.360;2024-01-10T00:10:53;96385.22;;;-4.50;100.00
3096;BME280;1558;42.700;23.360;2024-01-10T00:13:21;96397.09;;;-4.34;100.00
3096;BME280;1558;42.700;23.360;2024-01-10T00:15:50;96380.94;;;-4.44;100.00
3096;BME280;1558;42.700;23.360;2024-01-10T00:18:18;96401.53;;;-4.35;100.00
3096;BME280;1558;42.700;23.360;2024-01-10T00:20:46;96405.06;;;-4.54;100.00
3096;BME280;1558;42.700;23.360;2024-01-10T00:23:15;96409.09;;;-4.51;100.00
3096;BME280;1558;42.700;23.360;2024-01-10T00:25:45;96419.81;;;-4.46;100.00
3096;BME280;1558;42.700;23.360;2024-01-10T00:28:14;96405.66;;;-4.45;100.00
3096;BME280;1558;42.700;23.360;2024-01-10T00:30:43;96416.13;;;-4.39;100.00
3096;BME280;1558;42.700;23.360;2024-01-10T00:33:14;96396.72;;;-4.44;100.00
3096;BME280;1558;42.700;23.360;2024-01-10T00:35:42;96412.69;;;-4.39;100.00
3096;BME280;1558;42.700;23.360;2024-01-10T00:38:13;96405.56;;;-4.32;100.00
3096;BME280;1558;42.700;23.360;2024-01-10T00:40:45;96416.50;;;-4.29;100.00
3096;BME280;1558;42.700;23.360;2024-01-10T00:43:14;96417.28;;;-4.22;100.00
3096;BME280;1558;42.700;23.360;2024-01-10T00:45:44;96397.66;;;-4.32;100.00
3096;BME280;1558;42.700;23.360;2024-01-10T00:48:13;96411.28;;;-4.35;100.00
3096;BME280;1558;42.700;23.360;2024-01-10T00:50:44;96404.97;;;-4.34;100.00
3096;BME280;1558;42.700;23.360;2024-01-10T00:53:12;96410.81;;;-4.26;100.00
3096;BME280;1558;42.700;23.360;2024-01-10T00:55:41;96416.22;;;-4.21;100.00
3096;BME280;1558;42.700;23.360;2024-01-10T00:58:11;96414.47;;;-4.27;100.00
3096;BME280;1558;42.700;23.360;2024-01-10T01:00:39;96408.19;;;-4.32;100.00
3096;BME280;1558;42.700;23.360;2024-01-10T01:03:08;96417.03;;;-4.20;100.00
3096;BME280;1558;42.700;23.360;2024-01-10T01:05:36;96416.03;;;-4.19;100.00
3096;BME280;1558;42.700;23.360;2024-01-10T01:08:06;96377.13;;;-4.48;100.00
3096;BME280;1558;42.700;23.360;2024-01-10T01:10:34;96412.81;;;-4.21;100.00
3096;BME280;1558;42.700;23.360;2024-01-10T01:13:04;96415.28;;;-4.26;100.00
3096;BME280;1558;42.700;23.360;2024-01-10T01:15:35;96410.41;;;-4.29;100.00
3096;BME280;1558;42.700;23.360;2024-01-10T01:18:04;96414.50;;;-4.33;100.00
3096;BME280;1558;42.700;23.360;2024-01-10T01:20:33;96403.53;;;-4.30;100.00
3096;BME280;1558;42.700;23.360;2024-01-10T01:23:01;96399.81;;;-4.16;100.00
3096;BME280;1558;42.700;23.360;2024-01-10T01:25:30;96394.16;;;-4.20;100.00
3096;BME280;1558;42.700;23.360;2024-01-10T01:27:58;96395.03;;;-4.32;100.00
3096;BME280;1558;42.700;23.360;2024-01-10T01:30:26;96407.38;;;-4.26;100.00
3096;BME280;1558;42.700;23.360;2024-01-10T01:32:56;96395.03;;;-4.32;100.00
3096;BME280;1558;42.700;23.360;2024-01-10T01:35:24;96379.41;;;-4.27;100.00
3096;BME280;1558;42.700;23.360;2024-01-10T01:37:53;96371.34;;;-4.32;100.00
3096;BME280;1558;42.700;23.360;2024-01-10T01:40:21;96392.53;;;-4.21;100.00
3096;BME280;1558;42.700;23.360;2024-01-10T01:42:50;96396.44;;;-4.23;100.00
3096;BME280;1558;42.700;23.360;2024-01-10T01:45:20;96398.78;;;-4.15;100.00
3096;BME280;1558;42.700;23.360;2024-01-10T01:47:49;96387.72;;;-4.24;100.00
3096;BME280;1558;42.700;23.360;2024-01-10T01:50:19;96391.28;;;-4.43;100.00
3096;BME280;1558;42.700;23.360;2024-01-10T01:52:47;96395.31;;;-4.40;100.00
3096;BME280;1558;42.700;23.360;2024-01-10T01:55:17;96391.41;;;-4.31;100.00
3096;BME280;1558;42.700;23.360;2024-01-10T01:57:45;96387.38;;;-4.34;100.00
3096;BME280;1558;42.700;23.360;2024-01-10T02:00:15;96374.44;;;-4.35;100.00
3096;BME280;1558;42.700;23.360;2024-01-10T02:02:44;96383.38;;;-4.43;100.00
3096;BME280;1558;42.700;23.360;2024-01-10T02:05:12;96380.09;;;-4.38;100.00
3096;BME280;1558;42.700;23.360;2024-01-10T02:07:47;96369.94;;;-4.35;100.00
3096;BME280;1558;42.700;23.360;2024-01-10T02:10:15;96317.09;;;-4.64;100.00
3096;BME280;1558;42.700;23.360;2024-01-10T02:12:44;96375.50;;;-4.18;100.00
3096;BME280;1558;42.700;23.360;2024-01-10T02:15:13;96358.47;;;-4.40;100.00
3096;BME280;1558;42.700;23.360;2024-01-10T02:17:42;96381.75;;;-4.44;100.00
3096;BME280;1558;42.700;23.360;2024-01-10T02:20:12;96361.72;;;-4.45;100.00
3096;BME280;1558;42.700;23.360;2024-01-10T02:22:44;96364.59;;;-4.53;100.00
3096;BME280;1558;42.700;23.360;2024-01-10T02:25:14;96372.09;;;-4.56;100.00
3096;BME280;1558;42.700;23.360;2024-01-10T02:27:42;96380.56;;;-4.48;100.00
3096;BME280;1558;42.700;23.360;2024-01-10T02:30:11;96378.88;;;-4.36;100.00
3096;BME280;1558;42.700;23.360;2024-01-10T02:32:42;96374.84;;;-4.38;100.00
3096;BME280;1558;42.700;23.360;2024-01-10T02:35:13;96362.38;;;-4.49;100.00
3096;BME280;1558;42.700;23.360;2024-01-10T02:37:43;96360.97;;;-4.58;100.00
3096;BME280;1558;42.700;23.360;2024-01-10T02:40:20;96367.84;;;-4.57;100.00
3096;BME280;1558;42.700;23.360;2024-01-10T02:42:48;96351.13;;;-4.69;100.00
3096;BME280;1558;42.700;23.360;2024-01-10T02:45:17;96377.75;;;-4.53;100.00
3096;BME280;1558;42.700;23.360;2024-01-10T02:47:46;96381.56;;;-4.42;100.00
3096;BME280;1558;42.700;23.360;2024-01-10T02:50:14;96375.66;;;-4.38;100.00
3096;BME280;1558;42.700;23.360;2024-01-10T02:52:43;96371.78;;;-4.35;100.00
3096;BME280;1558;42.700;23.360;2024-01-10T02:55:12;96376.63;;;-4.32;100.00
3096;BME280;1558;42.700;23.360;2024-01-10T02:57:41;96369.75;;;-4.33;100.00
3096;BME280;1558;42.700;23.360;2024-01-10T03:00:11;96374.84;;;-4.38;100.00
3096;BME280;1558;42.700;23.360;2024-01-10T03:02:39;96356.28;;;-4.56;100.00
3096;BME280;1558;42.700;23.360;2024-01-10T03:05:08;96364.41;;;-4.58;100.00
3096;BME280;1558;42.700;23.360;2024-01-10T03:07:41;96368.41;;;-4.42;100.00
3096;BME280;1558;42.700;23.360;2024-01-10T03:10:10;96371.56;;;-4.34;100.00
3096;BME280;1558;42.700;23.360;2024-01-10T03:12:38;96372.75;;;-4.30;100.00
3096;BME280;1558;42.700;23.360;2024-01-10T03:15:09;96352.91;;;-4.32;100.00
3096;BME280;1558;42.700;23.360;2024-01-10T03:17:38;96367.03;;;-4.20;100.00
3096;BME280;1558;42.700;23.360;2024-01-10T03:20:07;96378.41;;;-4.26;100.00
3096;BME280;1558;42.700;23.360;2024-01-10T03:22:36;96372.81;;;-4.36;100.00
3096;BME280;1558;42.700;23.360;2024-01-10T03:25:05;96383.69;;;-4.26;100.00
3096;BME280;1558;42.700;23.360;2024-01-10T03:27:34;96376.06;;;-4.41;100.00
3096;BME280;1558;42.700;23.360;2024-01-10T03:30:04;96382.91;;;-4.33;100.00
3096;BME280;1558;42.700;23.360;2024-01-10T03:32:35;96369.19;;;-4.42;100.00
3096;BME280;1558;42.700;23.360;2024-01-10T03:35:04;96384.72;;;-4.34;100.00
3096;BME280;1558;42.700;23.360;2024-01-10T03:37:34;96375.44;;;-4.36;100.00
3096;BME280;1558;42.700;23.360;2024-01-10T03:40:03;96382.75;;;-4.38;100.00
3096;BME280;1558;42.700;23.360;2024-01-10T03:42:31;96381.88;;;-4.32;100.00
3096;BME280;1558;42.700;23.360;2024-01-10T03:45:04;96379.06;;;-4.31;100.00
3096;BME280;1558;42.700;23.360;2024-01-10T03:47:34;96380.41;;;-4.22;100.00
3096;BME280;1558;42.700;23.360;2024-01-10T03:50:03;96373.91;;;-4.19;100.00
3096;BME280;1558;42.700;23.360;2024-01-10T03:52:32;96377.13;;;-4.17;100.00
3096;BME280;1558;42.700;23.360;2024-01-10T03:55:01;96379.00;;;-4.24;100.00
3096;BME280;1558;42.700;23.360;2024-01-10T03:57:31;96352.59;;;-4.42;100.00
3096;BME280;1558;42.700;23.360;2024-01-10T04:00:00;96384.50;;;-4.26;100.00
3096;BME280;1558;42.700;23.360;2024-01-10T04:02:29;96389.53;;;-4.24;100.00
3096;BME280;1558;42.700;23.360;2024-01-10T06:25:16;96485.75;;;-4.28;93.21
3096;BME280;1558;42.700;23.360;2024-01-10T06:27:44;96486.31;;;-4.20;93.67
3096;BME280;1558;42.700;23.360;2024-01-10T06:30:13;96458.22;;;-4.26;92.66
3096;BME280;1558;42.700;23.360;2024-01-10T06:32:42;96461.88;;;-4.33;92.08
3096;BME280;1558;42.700;23.360;2024-01-10T06:35:10;96486.91;;;-4.18;91.48
3096;BME280;1558;42.700;23.360;2024-01-10T06:37:38;96509.19;;;-4.20;90.83
3096;BME280;1558;42.700;23.360;2024-01-10T06:40:08;96380.03;;;-5.14;89.55
3096;BME280;1558;42.700;23.360;2024-01-10T06:42:38;96505.06;;;-4.47;87.98
3096;BME280;1558;42.700;23.360;2024-01-10T06:45:07;96514.56;;;-4.46;88.33
3096;BME280;1558;42.700;23.360;2024-01-10T06:47:39;96513.72;;;-4.34;88.23
3096;BME280;1558;42.700;23.360;2024-01-10T06:50:09;96512.88;;;-4.28;87.85
3096;BME280;1558;42.700;23.360;2024-01-10T06:52:38;96516.56;;;-4.35;87.39
3096;BME280;1558;42.700;23.360;2024-01-10T06:55:07;96516.72;;;-4.30;86.73
3096;BME280;1558;42.700;23.360;2024-01-10T06:57:38;96517.75;;;-4.31;87.38
3096;BME280;1558;42.700;23.360;2024-01-10T07:00:07;96519.22;;;-4.35;86.73
3096;BME280;1558;42.700;23.360;2024-01-10T07:02:38;96509.28;;;-4.33;86.76
3096;BME280;1558;42.700;23.360;2024-01-10T07:05:08;96527.03;;;-4.22;86.92
3096;BME280;1558;42.700;23.360;2024-01-10T07:07:37;96506.38;;;-4.19;86.81
3096;BME280;1558;42.700;23.360;2024-01-10T07:10:06;96518.34;;;-3.85;86.74
3096;BME280;1558;42.700;23.360;2024-01-10T07:12:34;96515.06;;;-3.74;86.79
3096;BME280;1558;42.700;23.360;2024-01-10T07:15:05;96512.16;;;-3.66;86.60
3096;BME280;1558;42.700;23.360;2024-01-10T07:17:34;96528.72;;;-3.59;85.57
3096;BME280;1558;42.700;23.360;2024-01-10T07:20:03;96527.41;;;-3.43;84.91
3096;BME280;1558;42.700;23.360;2024-01-10T07:22:32;96522.66;;;-3.59;83.13
3096;BME280;1558;42.700;23.360;2024-01-10T07:25:03;96506.09;;;-3.73;82.59
3096;BME280;1558;42.700;23.360;2024-01-10T07:27:34;96536.38;;;-3.51;82.06
3096;BME280;1558;42.700;23.360;2024-01-10T07:30:07;96416.75;;;-3.74;82.74
3096;BME280;1558;42.700;23.360;2024-01-10T07:32:41;96508.97;;;-3.18;80.12
3096;BME280;1558;42.700;23.360;2024-01-10T07:35:12;96542.63;;;-3.14;78.53
3096;BME280;1558;42.700;23.360;2024-01-10T07:37:41;96509.09;;;-3.31;78.08
3096;BME280;1558;42.700;23.360;2024-01-10T07:40:10;96536.63;;;-3.27;76.85
3096;BME280;1558;42.700;23.360;2024-01-10T07:42:40;96549.72;;;-3.14;76.74
3096;BME280;1558;42.700;23.360;2024-01-10T07:45:10;96545.63;;;-3.10;76.30
3096;BME280;1558;42.700;23.360;2024-01-10T07:47:39;96549.91;;;-3.09;75.48
3096;BME280;1558;42.700;23.360;2024-01-10T07:50:08;96549.72;;;-2.90;75.93
3096;BME280;1558;42.700;23.360;2024-01-10T07:52:39;96553.75;;;-2.87;75.27
3096;BME280;1558;42.700;23.360;2024-01-10T07:55:09;96549.19;;;-2.55;75.54
3096;BME280;1558;42.700;23.360;2024-01-10T07:57:37;96547.66;;;-2.45;74.56
3096;BME280;1558;42.700;23.360;2024-01-10T08:00:06;96551.81;;;-2.73;72.48
3096;BME280;1558;42.700;23.360;2024-01-10T08:02:41;96551.34;;;-2.46;72.72
3096;BME280;1558;42.700;23.360;2024-01-10T08:05:10;96549.13;;;-2.49;70.78
3096;BME280;1558;42.700;23.360;2024-01-10T08:07:39;96543.69;;;-2.54;68.80
3096;BME280;1558;42.700;23.360;2024-01-10T08:10:09;96553.91;;;-2.39;68.55
3096;BME280;1558;42.700;23.360;2024-01-10T08:12:38;96556.34;;;-2.20;69.06
3096;BME280;1558;42.700;23.360;2024-01-10T08:15:08;96552.06;;;-1.84;68.02
3096;BME280;1558;42.700;23.360;2024-01-10T08:17:38;96553.06;;;-1.67;66.95
3096;BME280;1558;42.700;23.360;2024-01-10T08:20:09;96556.22;;;-1.47;65.59
3096;BME280;1558;42.700;23.360;2024-01-10T08:22:38;96561.25;;;-1.27;64.68
3096;BME280;1558;42.700;23.360;2024-01-10T08:25:09;96550.09;;;-1.59;62.24
3096;BME280;1558;42.700;23.360;2024-01-10T08:27:40;96542.41;;;-1.49;63.41
3096;BME280;1558;42.700;23.360;2024-01-10T08:30:12;96555.06;;;-1.51;61.67
3096;BME280;1558;42.700;23.360;2024-01-10T08:32:42;96552.97;;;-1.61;61.41
3096;BME280;1558;42.700;23.360;2024-01-10T08:35:10;96552.19;;;-1.79;61.38
3096;BME280;1558;42.700;23.360;2024-01-10T08:37:39;96561.66;;;-1.01;62.15
3096;BME280;1558;42.700;23.360;2024-01-10T08:40:12;96563.59;;;0.08;61.89
3096;BME280;1558;42.700;23.360;2024-01-10T08:42:42;96567.59;;;0.22;58.69
3096;BME280;1558;42.700;23.360;2024-01-10T08:45:12;96558.22;;;0.59;59.12
3096;BME280;1558;42.700;23.360;2024-01-10T08:47:43;96543.16;;;0.77;57.64
3096;BME280;1558;42.700;23.360;2024-01-10T08:50:12;96412.09;;;-0.12;55.37
3096;BME280;1558;42.700;23.360;2024-01-10T08:52:41;96561.56;;;0.66;56.43
3096;BME280;1558;42.700;23.360;2024-01-10T08:55:09;96549.66;;;0.86;55.57
3096;BME280;1558;42.700;23.360;2024-01-10T08:57:40;96555.25;;;1.51;56.57
3096;BME280;1558;42.700;23.360;2024-01-10T09:00:10;96549.38;;;0.99;54.44
3096;BME280;1558;42.700;23.360;2024-01-10T09:02:45;96532.94;;;1.68;55.36
3096;BME280;1558;42.700;23.360;2024-01-10T09:05:15;96548.16;;;1.73;53.62
3096;BME280;1558;42.700;23.360;2024-01-10T09:07:46;96532.97;;;1.18;53.44
3096;BME280;1558;42.700;23.360;2024-01-10T09:10:15;96543.81;;;1.17;53.18
3096;BME280;1558;42.700;23.360;2024-01-10T09:12:44;96539.06;;;1.35;53.31
3096;BME280;1558;42.700;23.360;2024-01-10T09:15:20;96541.41;;;1.49;52.82
3096;BME280;1558;42.700;23.360;2024-01-10T09:17:50;96514.53;;;1.12;52.53
3096;BME280;1558;42.700;23.360;2024-01-10T09:20:22;96542.88;;;1.23;52.51
3096;BME280;1558;42.700;23.360;2024-01-10T09:22:58;96544.47;;;1.07;52.92
3096;BME280;1558;42.700;23.360;2024-01-10T09:25:27;96539.34;;;1.72;54.26
3096;BME280;1558;42.700;23.360;2024-01-10T09:27:55;96541.88;;;2.00;51.95
3096;BME280;1558;42.700;23.360;2024-01-10T09:30:25;96538.19;;;2.23;53.56
3096;BME280;1558;42.700;23.360;2024-01-10T09:32:56;96529.88;;;2.95;52.97
3096;BME280;1558;42.700;23.360;2024-01-10T09:35:26;96532.38;;;2.53;51.54
3096;BME280;1558;42.700;23.360;2024-01-10T09:37:58;96518.63;;;2.61;51.94
3096;BME280;1558;42.700;23.360;2024-01-10T09:40:27;96401.59;;;2.18;55.15
3096;BME280;1558;42.700;23.360;2024-01-10T09:43:11;96530.78;;;2.52;58.47
3096;BME280;1558;42.700;23.360;2024-01-10T09:45:46;96529.34;;;1.79;60.41
3096;BME280;1558;42.700;23.360;2024-01-10T09:48:18;96527.31;;;1.86;63.91
3096;BME280;1558;42.700;23.360;2024-01-10T09:50:50;96529.91;;;1.81;63.52
3096;BME280;1558;42.700;23.360;2024-01-10T09:53:33;96525.75;;;1.90;65.08
3096;BME280;1558;42.700;23.360;2024-01-10T09:56:07;96527.22;;;1.60;68.38
3096;BME280;1558;42.700;23.360;2024-01-10T09:58:37;96508.88;;;1.42;72.38
3096;BME280;1558;42.700;23.360;2024-01-10T10:01:07;96505.84;;;1.00;71.77
3096;BME280;1558;42.700;23.360;2024-01-10T10:03:37;96512.84;;;1.06;71.72
3096;BME280;1558;42.700;23.360;2024-01-10T10:06:09;96510.66;;;0.86;72.60
3096;BME280;1558;42.700;23.360;2024-01-10T10:08:41;96507.91;;;1.31;70.80
3096;BME280;1558;42.700;23.360;2024-01-10T10:11:12;96498.38;;;1.13;78.10
3096;BME280;1558;42.700;23.360;2024-01-10T10:13:41;96502.03;;;0.62;100.00
3096;BME280;1558;42.700;23.360;2024-01-10T10:16:09;96493.56;;;0.21;100.00
3096;BME280;1558;42.700;23.360;2024-01-10T10:18:41;96496.75;;;0.06;100.00
3096;BME280;1558;42.700;23.360;2024-01-10T10:21:17;96492.66;;;0.15;100.00
3096;BME280;1558;42.700;23.360;2024-01-10T10:23:57;96488.69;;;0.01;100.00
3096;BME280;1558;42.700;23.360;2024-01-10T10:26:29;96478.19;;;0.06;100.00
3096;BME280;1558;42.700;23.360;2024-01-10T10:29:03;96487.25;;;0.10;100.00
3096;BME280;1558;42.700;23.360;2024-01-10T10:31:35;96481.84;;;0.05;100.00
3096;BME280;1558;42.700;23.360;2024-01-10T10:34:07;96477.53;;;-0.13;100.00
3096;BME280;1558;42.700;23.360;2024-01-10T10:36:38;96477.34;;;0.06;100.00
3096;BME280;1558;42.700;23.360;2024-01-10T10:39:07;96459.25;;;0.14;100.00
3096;BME280;1558;42.700;23.360;2024-01-10T10:41:40;96461.78;;;0.09;100.00
3096;BME280;1558;42.700;23.360;2024-01-10T10:44:09;96463.53;;;0.04;100.00
3096;BME280;1558;42.700;23.360;2024-01-10T10:46:38;96454.09;;;0.24;100.00
3096;BME280;1558;42.700;23.360;2024-01-10T10:49:11;96450.41;;;0.25;100.00
3096;BME280;1558;42.700;23.360;2024-01-10T10:51:40;96447.06;;;0.46;100.00
3096;BME280;1558;42.700;23.360;2024-01-10T10:54:09;96447.47;;;0.38;100.00
3096;BME280;1558;42.700;23.360;2024-01-10T10:56:40;96434.69;;;0.35;100.00
3096;BME280;1558;42.700;23.360;2024-01-10T10:59:12;96437.00;;;0.32;100.00
3096;BME280;1558;42.700;23.360;2024-01-10T11:01:43;96430.97;;;0.36;100.00
3096;BME280;1558;42.700;23.360;2024-01-10T11:04:15;96413.13;;;0.32;100.00
3096;BME280;1558;42.700;23.360;2024-01-10T11:06:43;96417.16;;;0.34;100.00
3096;BME280;1558;42.700;23.360;2024-01-10T11:09:13;96416.59;;;0.32;100.00
3096;BME280;1558;42.700;23.360;2024-01-10T11:11:57;96420.38;;;0.36;100.00
3096;BME280;1558;42.700;23.360;2024-01-10T11:14:38;96414.84;;;0.38;100.00
3096;BME280;1558;42.700;23.360;2024-01-10T11:17:34;96409.28;;;0.39;100.00
3096;BME280;1558;42.700;23.360;2024-01-10T11:23:28;96408.16;;;0.35;100.00
3096;BME280;1558;42.700;23.360;2024-01-10T11:26:00;96401.88;;;0.41;100.00
3096;BME280;1558;42.700;23.360;2024-01-10T11:28:30;96399.16;;;0.36;100.00
3096;BME280;1558;42.700;23.360;2024-01-10T11:31:00;96394.81;;;0.47;100.00
3096;BME280;1558;42.700;23.360;2024-01-10T11:33:31;96392.34;;;0.40;100.00
3096;BME280;1558;42.700;23.360;2024-01-10T11:36:08;96392.97;;;0.31;100.00
3096;BME280;1558;42.700;23.360;2024-01-10T11:38:57;96383.31;;;0.41;100.00
3096;BME280;1558;42.700;23.360;2024-01-10T11:41:29;96388.44;;;0.31;100.00
3096;BME280;1558;42.700;23.360;2024-01-10T11:44:25;96383.88;;;0.43;100.00
3096;BME280;1558;42.700;23.360;2024-01-10T11:46:55;96381.78;;;0.29;100.00
3096;BME280;1558;42.700;23.360;2024-01-10T11:49:24;96376.63;;;0.22;100.00
3096;BME280;1558;42.700;23.360;2024-01-10T11:51:57;96374.97;;;0.33;100.00
3096;BME280;1558;42.700;23.360;2024-01-10T11:54:42;96379.84;;;0.24;100.00
3096;BME280;1558;42.700;23.360;2024-01-10T11:57:13;96372.06;;;0.34;100.00
3096;BME280;1558;42.700;23.360;2024-01-10T11:59:43;96366.38;;;0.42;100.00
3096;BME280;1558;42.700;23.360;2024-01-10T12:02:14;96366.34;;;0.09;100.00
3096;BME280;1558;42.700;23.360;2024-01-10T12:04:42;96364.09;;;0.34;100.00
3096;BME280;1558;42.700;23.360;2024-01-10T12:07:19;96358.31;;;0.37;100.00
3096;BME280;1558;42.700;23.360;2024-01-10T12:09:48;96354.13;;;0.41;100.00
3096;BME280;1558;42.700;23.360;2024-01-10T12:12:17;96353.00;;;0.37;100.00
3096;BME280;1558;42.700;23.360;2024-01-10T12:14:46;96351.81;;;0.45;100.00
3096;BME280;1558;42.700;23.360;2024-01-10T12:17:14;96340.88;;;0.41;100.00
3096;BME280;1558;42.700;23.360;2024-01-10T12:19:43;96344.81;;;0.39;100.00
3096;BME280;1558;42.700;23.360;2024-01-10T12:22:13;96338.28;;;0.30;100.00
3096;BME280;1558;42.700;23.360;2024-01-10T12:24:47;96338.03;;;0.31;100.00
3096;BME280;1558;42.700;23.360;2024-01-10T12:27:17;96337.09;;;0.37;100.00
3096;BME280;1558;42.700;23.360;2024-01-10T12:29:50;96332.91;;;0.41;100.00
3096;BME280;1558;42.700;23.360;2024-01-10T12:32:20;96336.75;;;0.34;100.00
3096;BME280;1558;42.700;23.360;2024-01-10T12:34:54;96341.28;;;0.33;100.00
3096;BME280;1558;42.700;23.360;2024-01-10T12:37:26;96341.50;;;0.32;100.00
3096;BME280;1558;42.700;23.360;2024-01-10T12:39:55;96334.81;;;0.46;100.00
3096;BME280;1558;42.700;23.360;2024-01-10T12:42:24;96341.34;;;0.38;100.00
3096;BME280;1558;42.700;23.360;2024-01-10T12:44:53;96330.81;;;0.43;100.00
3096;BME280;1558;42.700;23.360;2024-01-10T12:47:22;96331.69;;;0.49;100.00
3096;BME280;1558;42.700;23.360;2024-01-10T12:49:51;96336.28;;;0.53;100.00
3096;BME280;1558;42.700;23.360;2024-01-10T12:52:21;96331.53;;;0.55;100.00
3096;BME280;1558;42.700;23.360;2024-01-10T12:54:52;96340.56;;;0.54;100.00
3096;BME280;1558;42.700;23.360;2024-01-10T12:57:22;96337.72;;;0.61;100.00
3096;BME280;1558;42.700;23.360;2024-01-10T12:59:50;96342.56;;;0.47;100.00
3096;BME280;1558;42.700;23.360;2024-01-10T13:02:19;96336.75;;;0.50;100.00
3096;BME280;1558;42.700;23.360;2024-01-10T13:04:47;96341.41;;;0.60;100.00
3096;BME280;1558;42.700;23.360;2024-01-10T13:07:16;96340.78;;;0.53;100.00
3096;BME280;1558;42.700;23.360;2024-01-10T13:09:45;96344.78;;;0.55;100.00
3096;BME280;1558;42.700;23.360;2024-01-10T13:12:14;96337.38;;;0.57;100.00
3096;BME280;1558;42.700;23.360;2024-01-10T13:14:43;96339.31;;;0.62;100.00
3096;BME280;1558;42.700;23.360;2024-01-10T13:17:12;96340.69;;;0.64;100.00
3096;BME280;1558;42.700;23.360;2024-01-10T13:19:40;96342.94;;;0.56;100.00
3096;BME280;1558;42.700;23.360;2024-01-10T13:22:10;96338.13;;;0.53;100.00
3096;BME280;1558;42.700;23.360;2024-01-10T13:24:41;96329.94;;;0.54;100.00
3096;BME280;1558;42.700;23.360;2024-01-10T13:27:10;96332.59;;;0.54;100.00
3096;BME280;1558;42.700;23.360;2024-01-10T13:29:38;96327.09;;;0.61;100.00
3096;BME280;1558;42.700;23.360;2024-01-10T13:32:08;96327.28;;;0.54;100.00
3096;BME280;1558;42.700;23.360;2024-01-10T13:34:37;96327.28;;;0.54;100.00
3096;BME280;1558;42.700;23.360;2024-01-10T13:37:06;96329.75;;;0.61;100.00
3096;BME280;1558;42.700;23.360;2024-01-10T13:39:34;96319.53;;;0.53;100.00
3096;BME280;1558;42.700;23.360;2024-01-10T13:42:03;96327.44;;;0.48;100.00
3096;BME280;1558;42.700;23.360;2024-01-10T13:44:31;96321.91;;;0.49;100.00
3096;BME280;1558;42.700;23.360;2024-01-10T13:47:00;96328.72;;;0.45;100.00
3096;BME280;1558;42.700;23.360;2024-01-10T13:49:31;96332.44;;;0.44;100.00
3096;BME280;1558;42.700;23.360;2024-01-10T13:52:00;96321.00;;;0.60;100.00
3096;BME280;1558;42.700;23.360;2024-01-10T13:54:29;96331.13;;;0.63;100.00
3096;BME280;1558;42.700;23.360;2024-01-10T13:56:57;96342.78;;;0.62;100.00
3096;BME280;1558;42.700;23.360;2024-01-10T13:59:25;96324.13;;;0.57;100.00
3096;BME280;1558;42.700;23.360;2024-01-10T14:01:53;96336.59;;;0.57;100.00
3096;BME280;1558;42.700;23.360;2024-01-10T14:04:21;96334.66;;;0.52;100.00
3096;BME280;1558;42.700;23.360;2024-01-10T14:06:51;96329.34;;;0.52;100.00
3096;BME280;1558;42.700;23.360;2024-01-10T14:09:19;96327.13;;;0.44;100.00
3096;BME280;1558;42.700;23.360;2024-01-10T14:11:48;96339.31;;;0.45;100.00
3096;BME280;1558;42.700;23.360;2024-01-10T14:14:16;96341.28;;;0.33;100.00
3096;BME280;1558;42.700;23.360;2024-01-10T14:16:47;96332.66;;;0.26;100.00
3096;BME280;1558;42.700;23.360;2024-01-10T14:19:16;96348.34;;;0.11;100.00
3096;BME280;1558;42.700;23.360;2024-01-10T14:21:44;96341.75;;;0.14;100.00
3096;BME280;1558;42.700;23.360;2024-01-10T14:24:14;96336.81;;;0.06;100.00
3096;BME280;1558;42.700;23.360;2024-01-10T14:26:43;96345.75;;;-0.01;100.00
3096;BME280;1558;42.700;23.360;2024-01-10T14:29:14;96345.88;;;-0.07;100.00
3096;BME280;1558;42.700;23.360;2024-01-10T14:31:43;96338.81;;;-0.18;100.00
3096;BME280;1558;42.700;23.360;2024-01-10T14:34:32;96344.09;;;-0.18;100.00
3096;BME280;1558;42.700;23.360;2024-01-10T14:37:01;96338.97;;;-0.25;100.00
3096;BME280;1558;42.700;23.360;2024-01-10T14:39:32;96349.81;;;-0.26;100.00
3096;BME280;1558;42.700;23.360;2024-01-10T14:42:01;96349.13;;;-0.33;100.00
3096;BME280;1558;42.700;23.360;2024-01-10T14:44:29;96342.13;;;-0.39;100.00
3096;BME280;1558;42.700;23.360;2024-01-10T14:46:58;96356.94;;;-0.55;100.00
3096;BME280;1558;42.700;23.360;2024-01-10T14:49:36;96326.88;;;-0.89;100.00
3096;BME280;1558;42.700;23.360;2024-01-10T14:52:05;96341.34;;;-0.80;100.00
3096;BME280;1558;42.700;23.360;2024-01-10T14:54:34;96345.41;;;-0.89;100.00
3096;BME280;1558;42.700;23.360;2024-01-10T14:57:03;96347.81;;;-0.87;100.00
3096;BME280;1558;42.700;23.360;2024-01-10T14:59:31;96347.91;;;-0.82;100.00
3096;BME280;1558;42.700;23.360;2024-01-10T15:02:11;96345.97;;;-0.87;100.00
3096;BME280;1558;42.700;23.360;2024-01-10T15:04:40;96347.38;;;-0.96;100.00
3096;BME280;1558;42.700;23.360;2024-01-10T15:07:08;96338.78;;;-1.14;100.00
3096;BME280;1558;42.700;23.360;2024-01-10T15:09:39;96353.28;;;-1.17;100.00
3096;BME280;1558;42.700;23.360;2024-01-10T15:12:07;96349.81;;;-1.29;100.00
3096;BME280;1558;42.700;23.360;2024-01-10T15:14:37;96336.47;;;-1.34;100.00
3096;BME280;1558;42.700;23.360;2024-01-10T15:17:07;96348.56;;;-1.38;100.00
3096;BME280;1558;42.700;23.360;2024-01-10T15:19:38;96349.47;;;-1.44;100.00
3096;BME280;1558;42.700;23.360;2024-01-10T15:22:07;96350.28;;;-1.44;100.00
3096;BME280;1558;42.700;23.360;2024-01-10T15:24:36;96352.69;;;-1.42;100.00
3096;BME280;1558;42.700;23.360;2024-01-10T15:27:08;96349.91;;;-1.47;100.00
3096;BME280;1558;42.700;23.360;2024-01-10T15:29:38;96337.50;;;-1.58;100.00
3096;BME280;1558;42.700;23.360;2024-01-10T15:32:07;96349.22;;;-1.54;100.00
3096;BME280;1558;42.700;23.360;2024-01-10T15:34:36;96349.47;;;-1.56;100.00
3096;BME280;1558;42.700;23.360;2024-01-10T15:37:05;96348.09;;;-1.47;100.00
3096;BME280;1558;42.700;23.360;2024-01-10T15:39:33;96351.53;;;-1.34;100.00
3096;BME280;1558;42.700;23.360;2024-01-10T15:42:02;96348.66;;;-1.33;100.00
3096;BME280;1558;42.700;23.360;2024-01-10T15:44:31;96345.69;;;-1.37;100.00
3096;BME280;1558;42.700;23.360;2024-01-10T15:46:59;96340.28;;;-1.42;100.00